Terminal Aerodrome Forecast
Issued by NWS King Salmon, AK

Home | Current Version | Previous Version | Text Only | Print | Product List | Glossary On
Versions: 1 2 3 4 5 6 7 8 9 10 11 12 13 14 15 16 17 18 19 20 21 22 23 24 25 26 27 28 29
050
FTAK31 PANC 241735
TAFAKN
TAF
PAKN 241735Z 2418/2518 VRB05KT P6SM VCSH SCT003 BKN012 OVC050
      TEMPO 2418/2421 6SM -RA BR BKN003 OVC012
     FM242100 23005KT P6SM SCT005 BKN015 OVC025
     FM250900 21008G15KT 6SM -RASN BR SCT008 OVC015
     FM251300 19010G20KT 5SM -RA BR BKN008 OVC012=

USA.gov is the U.S. government's official web portal to all federal, state and local government web resources and services.